sensor_id;sensor_type;location;lat;lon;timestamp;temperature;humidity
7842;DHT22;3966;51.052;13.820;2022-09-09T00:04:39;15.00;99.90
7842;DHT22;3966;51.052;13.820;2022-09-09T00:09:53;15.00;99.90
7842;DHT22;3966;51.052;13.820;2022-09-09T00:12:35;15.00;99.90
7842;DHT22;3966;51.052;13.820;2022-09-09T00:15:11;15.00;99.90
7842;DHT22;3966;51.052;13.820;2022-09-09T00:17:38;15.00;99.90
7842;DHT22;3966;51.052;13.820;2022-09-09T00:22:38;14.80;99.90
7842;DHT22;3966;51.052;13.820;2022-09-09T00:25:16;14.80;99.90
7842;DHT22;3966;51.052;13.820;2022-09-09T00:27:49;14.70;99.90
7842;DHT22;3966;51.052;13.820;2022-09-09T00:30:23;14.80;99.90
7842;DHT22;3966;51.052;13.820;2022-09-09T00:32:54;14.70;99.90
7842;DHT22;3966;51.052;13.820;2022-09-09T00:35:38;14.70;99.90
7842;DHT22;3966;51.052;13.820;2022-09-09T00:38:26;14.70;99.90
7842;DHT22;3966;51.052;13.820;2022-09-09T00:41:27;14.70;99.90
7842;DHT22;3966;51.052;13.820;2022-09-09T00:44:02;14.70;99.90
7842;DHT22;3966;51.052;13.820;2022-09-09T00:52:47;14.60;99.90
7842;DHT22;3966;51.052;13.820;2022-09-09T00:58:07;14.50;99.90
7842;DHT22;3966;51.052;13.820;2022-09-09T01:00:54;14.60;99.90
7842;DHT22;3966;51.052;13.820;2022-09-09T01:06:30;14.50;99.90
7842;DHT22;3966;51.052;13.820;2022-09-09T01:09:17;14.50;99.90
7842;DHT22;3966;51.052;13.820;2022-09-09T01:12:09;14.60;99.90
7842;DHT22;3966;51.052;13.820;2022-09-09T01:25:26;14.40;99.90
7842;DHT22;3966;51.052;13.820;2022-09-09T01:27:56;14.40;99.90
7842;DHT22;3966;51.052;13.820;2022-09-09T01:30:23;14.40;99.90
7842;DHT22;3966;51.052;13.820;2022-09-09T01:32:53;14.30;99.90
7842;DHT22;3966;51.052;13.820;2022-09-09T01:38:14;14.40;99.90
7842;DHT22;3966;51.052;13.820;2022-09-09T01:40:40;14.50;99.90
7842;DHT22;3966;51.052;13.820;2022-09-09T01:43:06;14.40;99.90
7842;DHT22;3966;51.052;13.820;2022-09-09T01:45:33;14.50;99.90
7842;DHT22;3966;51.052;13.820;2022-09-09T01:48:00;14.50;99.90
7842;DHT22;3966;51.052;13.820;2022-09-09T01:50:26;14.40;99.90
7842;DHT22;3966;51.052;13.820;2022-09-09T01:52:55;14.40;99.90
7842;DHT22;3966;51.052;13.820;2022-09-09T01:55:31;14.40;99.90
7842;DHT22;3966;51.052;13.820;2022-09-09T01:58:41;14.30;99.90
7842;DHT22;3966;51.052;13.820;2022-09-09T02:03:56;14.10;99.90
7842;DHT22;3966;51.052;13.820;2022-09-09T02:06:40;14.10;99.90
7842;DHT22;3966;51.052;13.820;2022-09-09T02:09:07;14.20;99.90
7842;DHT22;3966;51.052;13.820;2022-09-09T02:11:36;14.20;99.90
7842;DHT22;3966;51.052;13.820;2022-09-09T02:14:22;14.10;99.90
7842;DHT22;3966;51.052;13.820;2022-09-09T02:17:18;14.20;99.90
7842;DHT22;3966;51.052;13.820;2022-09-09T02:19:59;14.00;99.90
7842;DHT22;3966;51.052;13.820;2022-09-09T02:22:28;14.00;99.90
7842;DHT22;3966;51.052;13.820;2022-09-09T02:24:57;14.00;99.90
7842;DHT22;3966;51.052;13.820;2022-09-09T02:27:24;14.00;99.90
7842;DHT22;3966;51.052;13.820;2022-09-09T02:29:51;14.00;99.90
7842;DHT22;3966;51.052;13.820;2022-09-09T02:32:22;14.00;99.90
7842;DHT22;3966;51.052;13.820;2022-09-09T02:35:02;13.90;99.90
7842;DHT22;3966;51.052;13.820;2022-09-09T02:37:36;13.90;99.90
7842;DHT22;3966;51.052;13.820;2022-09-09T02:40:08;13.90;99.90
7842;DHT22;3966;51.052;13.820;2022-09-09T02:42:45;13.90;99.90
7842;DHT22;3966;51.052;13.820;2022-09-09T02:45:14;13.90;99.90
7842;DHT22;3966;51.052;13.820;2022-09-09T02:50:14;13.90;99.90
7842;DHT22;3966;51.052;13.820;2022-09-09T02:55:23;13.90;99.90
7842;DHT22;3966;51.052;13.820;2022-09-09T02:57:53;13.80;99.90
7842;DHT22;3966;51.052;13.820;2022-09-09T03:00:24;13.80;99.90
7842;DHT22;3966;51.052;13.820;2022-09-09T03:02:50;13.80;99.90
7842;DHT22;3966;51.052;13.820;2022-09-09T03:05:16;13.70;99.90
7842;DHT22;3966;51.052;13.820;2022-09-09T03:07:42;13.80;99.90
7842;DHT22;3966;51.052;13.820;2022-09-09T03:10:08;13.70;99.90
7842;DHT22;3966;51.052;13.820;2022-09-09T03:12:33;13.70;99.90
7842;DHT22;3966;51.052;13.820;2022-09-09T03:14:59;13.60;99.90
7842;DHT22;3966;51.052;13.820;2022-09-09T03:17:24;13.60;99.90
7842;DHT22;3966;51.052;13.820;2022-09-09T03:19:51;13.60;99.90
7842;DHT22;3966;51.052;13.820;2022-09-09T03:22:17;13.50;99.90
7842;DHT22;3966;51.052;13.820;2022-09-09T03:24:43;13.60;99.90
7842;DHT22;3966;51.052;13.820;2022-09-09T03:27:09;13.50;99.90
7842;DHT22;3966;51.052;13.820;2022-09-09T03:29:34;13.50;99.90
7842;DHT22;3966;51.052;13.820;2022-09-09T03:32:00;13.60;99.90
7842;DHT22;3966;51.052;13.820;2022-09-09T03:34:25;13.40;99.90
7842;DHT22;3966;51.052;13.820;2022-09-09T03:36:51;13.30;99.90
7842;DHT22;3966;51.052;13.820;2022-09-09T03:39:17;13.40;99.90
7842;DHT22;3966;51.052;13.820;2022-09-09T03:41:42;13.40;99.90
7842;DHT22;3966;51.052;13.820;2022-09-09T03:44:12;13.30;99.90
7842;DHT22;3966;51.052;13.820;2022-09-09T03:46:37;13.20;99.90
7842;DHT22;3966;51.052;13.820;2022-09-09T03:49:03;13.30;99.90
7842;DHT22;3966;51.052;13.820;2022-09-09T03:51:29;13.30;99.90
7842;DHT22;3966;51.052;13.820;2022-09-09T03:53:55;13.30;99.90
7842;DHT22;3966;51.052;13.820;2022-09-09T03:56:22;13.30;99.90
7842;DHT22;3966;51.052;13.820;2022-09-09T03:58:47;13.30;99.90
7842;DHT22;3966;51.052;13.820;2022-09-09T04:01:13;13.40;99.90
7842;DHT22;3966;51.052;13.820;2022-09-09T04:03:40;13.40;99.90
7842;DHT22;3966;51.052;13.820;2022-09-09T04:06:07;13.40;99.90
7842;DHT22;3966;51.052;13.820;2022-09-09T04:08:34;13.40;99.90
7842;DHT22;3966;51.052;13.820;2022-09-09T04:11:01;13.40;99.90
7842;DHT22;3966;51.052;13.820;2022-09-09T04:13:27;13.30;99.90
7842;DHT22;3966;51.052;13.820;2022-09-09T04:16:00;13.30;99.90
7842;DHT22;3966;51.052;13.820;2022-09-09T04:18:26;13.30;99.90
7842;DHT22;3966;51.052;13.820;2022-09-09T04:20:54;13.30;99.90
7842;DHT22;3966;51.052;13.820;2022-09-09T04:23:22;13.30;99.90
7842;DHT22;3966;51.052;13.820;2022-09-09T04:25:51;13.30;99.90
7842;DHT22;3966;51.052;13.820;2022-09-09T04:28:18;13.10;99.90
7842;DHT22;3966;51.052;13.820;2022-09-09T04:30:45;13.10;99.90
7842;DHT22;3966;51.052;13.820;2022-09-09T04:33:11;13.20;99.90
7842;DHT22;3966;51.052;13.820;2022-09-09T04:35:37;13.10;99.90
7842;DHT22;3966;51.052;13.820;2022-09-09T04:38:04;13.10;99.90
7842;DHT22;3966;51.052;13.820;2022-09-09T04:40:30;13.20;99.90
7842;DHT22;3966;51.052;13.820;2022-09-09T04:43:00;13.30;99.90
7842;DHT22;3966;51.052;13.820;2022-09-09T04:45:26;13.30;99.90
7842;DHT22;3966;51.052;13.820;2022-09-09T04:47:52;13.40;99.90
7842;DHT22;3966;51.052;13.820;2022-09-09T04:50:18;13.40;99.90
7842;DHT22;3966;51.052;13.820;2022-09-09T04:52:44;13.40;99.90
7842;DHT22;3966;51.052;13.820;2022-09-09T04:55:09;13.50;99.90
7842;DHT22;3966;51.052;13.820;2022-09-09T04:57:35;13.50;99.90
7842;DHT22;3966;51.052;13.820;2022-09-09T05:00:01;13.50;99.90
7842;DHT22;3966;51.052;13.820;2022-09-09T05:02:26;13.50;99.90
7842;DHT22;3966;51.052;13.820;2022-09-09T05:04:52;13.60;99.90
7842;DHT22;3966;51.052;13.820;2022-09-09T05:07:17;13.50;99.90
7842;DHT22;3966;51.052;13.820;2022-09-09T05:09:44;13.50;99.90
7842;DHT22;3966;51.052;13.820;2022-09-09T05:12:10;13.60;99.90
7842;DHT22;3966;51.052;13.820;2022-09-09T05:14:36;13.60;99.90
7842;DHT22;3966;51.052;13.820;2022-09-09T05:17:02;13.60;99.90
7842;DHT22;3966;51.052;13.820;2022-09-09T05:19:28;13.70;99.90
7842;DHT22;3966;51.052;13.820;2022-09-09T05:21:53;13.80;99.90
7842;DHT22;3966;51.052;13.820;2022-09-09T05:24:19;13.80;99.90
7842;DHT22;3966;51.052;13.820;2022-09-09T05:26:44;13.70;99.90
7842;DHT22;3966;51.052;13.820;2022-09-09T05:29:10;13.80;99.90
7842;DHT22;3966;51.052;13.820;2022-09-09T05:31:35;13.80;99.90
7842;DHT22;3966;51.052;13.820;2022-09-09T05:34:01;13.80;99.90
7842;DHT22;3966;51.052;13.820;2022-09-09T05:36:27;13.90;99.90
7842;DHT22;3966;51.052;13.820;2022-09-09T05:38:53;14.00;99.90
7842;DHT22;3966;51.052;13.820;2022-09-09T05:41:21;14.00;99.90
7842;DHT22;3966;51.052;13.820;2022-09-09T05:43:48;14.00;99.90
7842;DHT22;3966;51.052;13.820;2022-09-09T05:46:22;14.10;99.90
7842;DHT22;3966;51.052;13.820;2022-09-09T05:48:49;14.20;99.90
7842;DHT22;3966;51.052;13.820;2022-09-09T05:51:21;14.30;99.90
7842;DHT22;3966;51.052;13.820;2022-09-09T05:53:48;14.30;99.90
7842;DHT22;3966;51.052;13.820;2022-09-09T05:56:19;14.40;99.90
7842;DHT22;3966;51.052;13.820;2022-09-09T05:58:45;14.50;99.90
7842;DHT22;3966;51.052;13.820;2022-09-09T06:01:17;14.50;99.90
7842;DHT22;3966;51.052;13.820;2022-09-09T06:03:44;14.50;99.90
7842;DHT22;3966;51.052;13.820;2022-09-09T06:06:12;14.60;99.90
7842;DHT22;3966;51.052;13.820;2022-09-09T06:08:41;14.70;99.90
7842;DHT22;3966;51.052;13.820;2022-09-09T06:11:13;14.80;99.90
7842;DHT22;3966;51.052;13.820;2022-09-09T06:13:39;14.90;99.90
7842;DHT22;3966;51.052;13.820;2022-09-09T06:16:09;15.00;99.90
7842;DHT22;3966;51.052;13.820;2022-09-09T06:18:36;15.10;99.90
7842;DHT22;3966;51.052;13.820;2022-09-09T06:21:04;15.10;99.90
7842;DHT22;3966;51.052;13.820;2022-09-09T06:23:32;15.20;99.90
7842;DHT22;3966;51.052;13.820;2022-09-09T06:26:05;15.30;99.90
7842;DHT22;3966;51.052;13.820;2022-09-09T06:28:33;15.30;99.90
7842;DHT22;3966;51.052;13.820;2022-09-09T06:30:59;15.40;99.90
7842;DHT22;3966;51.052;13.820;2022-09-09T06:33:26;15.40;99.90
7842;DHT22;3966;51.052;13.820;2022-09-09T06:35:52;15.50;99.90
7842;DHT22;3966;51.052;13.820;2022-09-09T06:38:18;15.60;99.90
7842;DHT22;3966;51.052;13.820;2022-09-09T06:40:53;15.70;99.90
7842;DHT22;3966;51.052;13.820;2022-09-09T06:43:23;15.70;99.90
7842;DHT22;3966;51.052;13.820;2022-09-09T06:46:42;15.70;99.90
7842;DHT22;3966;51.052;13.820;2022-09-09T06:49:01;15.80;99.90
7842;DHT22;3966;51.052;13.820;2022-09-09T06:51:30;15.90;99.90
7842;DHT22;3966;51.052;13.820;2022-09-09T06:53:58;15.90;99.90
7842;DHT22;3966;51.052;13.820;2022-09-09T06:56:31;16.00;99.90
7842;DHT22;3966;51.052;13.820;2022-09-09T06:58:59;16.20;99.90
7842;DHT22;3966;51.052;13.820;2022-09-09T07:01:29;16.30;99.90
7842;DHT22;3966;51.052;13.820;2022-09-09T07:03:56;16.40;99.90
7842;DHT22;3966;51.052;13.820;2022-09-09T07:06:26;16.50;99.90
7842;DHT22;3966;51.052;13.820;2022-09-09T07:08:53;16.70;99.90
7842;DHT22;3966;51.052;13.820;2022-09-09T07:11:21;16.90;99.90
7842;DHT22;3966;51.052;13.820;2022-09-09T07:13:48;17.00;99.90
7842;DHT22;3966;51.052;13.820;2022-09-09T07:16:16;17.20;99.90
7842;DHT22;3966;51.052;13.820;2022-09-09T07:18:42;17.30;99.90
7842;DHT22;3966;51.052;13.820;2022-09-09T07:21:10;17.40;99.90
7842;DHT22;3966;51.052;13.820;2022-09-09T07:23:37;17.50;99.90
7842;DHT22;3966;51.052;13.820;2022-09-09T07:26:08;17.60;99.90
7842;DHT22;3966;51.052;13.820;2022-09-09T07:28:34;17.70;99.90
7842;DHT22;3966;51.052;13.820;2022-09-09T07:31:01;17.70;99.90
7842;DHT22;3966;51.052;13.820;2022-09-09T07:33:28;17.80;99.90
7842;DHT22;3966;51.052;13.820;2022-09-09T07:36:05;17.90;99.90
7842;DHT22;3966;51.052;13.820;2022-09-09T07:38:37;18.00;99.90
7842;DHT22;3966;51.052;13.820;2022-09-09T07:41:07;18.10;99.90
7842;DHT22;3966;51.052;13.820;2022-09-09T07:43:34;18.10;99.90
7842;DHT22;3966;51.052;13.820;2022-09-09T07:46:00;18.20;99.90
7842;DHT22;3966;51.052;13.820;2022-09-09T07:48:29;18.20;99.90
7842;DHT22;3966;51.052;13.820;2022-09-09T07:53:31;18.40;99.90
7842;DHT22;3966;51.052;13.820;2022-09-09T07:56:03;18.50;99.90
7842;DHT22;3966;51.052;13.820;2022-09-09T07:58:28;18.60;99.90
7842;DHT22;3966;51.052;13.820;2022-09-09T08:00:54;18.80;99.90
7842;DHT22;3966;51.052;13.820;2022-09-09T08:03:20;19.00;99.90
7842;DHT22;3966;51.052;13.820;2022-09-09T08:05:47;19.10;99.90
7842;DHT22;3966;51.052;13.820;2022-09-09T08:08:12;19.20;99.90
7842;DHT22;3966;51.052;13.820;2022-09-09T08:10:38;19.30;99.90
7842;DHT22;3966;51.052;13.820;2022-09-09T08:13:03;19.50;99.90
7842;DHT22;3966;51.052;13.820;2022-09-09T08:15:31;19.60;99.90
7842;DHT22;3966;51.052;13.820;2022-09-09T08:17:57;19.70;99.90
7842;DHT22;3966;51.052;13.820;2022-09-09T08:20:23;19.80;99.90
7842;DHT22;3966;51.052;13.820;2022-09-09T08:22:48;19.90;99.90
7842;DHT22;3966;51.052;13.820;2022-09-09T08:25:15;20.00;99.90
7842;DHT22;3966;51.052;13.820;2022-09-09T08:27:40;20.10;99.90
7842;DHT22;3966;51.052;13.820;2022-09-09T08:30:06;20.00;99.90
7842;DHT22;3966;51.052;13.820;2022-09-09T08:32:32;20.00;99.90
7842;DHT22;3966;51.052;13.820;2022-09-09T08:34:58;20.00;99.90
7842;DHT22;3966;51.052;13.820;2022-09-09T08:37:23;19.90;99.90
7842;DHT22;3966;51.052;13.820;2022-09-09T08:39:48;19.90;99.90
7842;DHT22;3966;51.052;13.820;2022-09-09T08:42:33;19.90;99.90
7842;DHT22;3966;51.052;13.820;2022-09-09T08:45:25;20.00;99.90
7842;DHT22;3966;51.052;13.820;2022-09-09T08:50:27;20.10;99.90
7842;DHT22;3966;51.052;13.820;2022-09-09T08:58:29;20.20;99.90
7842;DHT22;3966;51.052;13.820;2022-09-09T09:01:16;20.30;99.90
7842;DHT22;3966;51.052;13.820;2022-09-09T09:09:14;20.60;99.90
7842;DHT22;3966;51.052;13.820;2022-09-09T09:11:55;20.70;99.90
7842;DHT22;3966;51.052;13.820;2022-09-09T09:14:30;20.70;99.90
7842;DHT22;3966;51.052;13.820;2022-09-09T09:17:14;20.70;99.90
7842;DHT22;3966;51.052;13.820;2022-09-09T09:19:43;20.70;99.90
7842;DHT22;3966;51.052;13.820;2022-09-09T09:22:23;20.60;99.90
7842;DHT22;3966;51.052;13.820;2022-09-09T09:25:23;20.50;99.90
7842;DHT22;3966;51.052;13.820;2022-09-09T09:30:40;20.50;99.90
7842;DHT22;3966;51.052;13.820;2022-09-09T09:35:49;20.00;99.90
7842;DHT22;3966;51.052;13.820;2022-09-09T09:38:18;19.40;99.90
7842;DHT22;3966;51.052;13.820;2022-09-09T09:40:56;19.00;99.90
7842;DHT22;3966;51.052;13.820;2022-09-09T09:43:34;18.80;99.90
7842;DHT22;3966;51.052;13.820;2022-09-09T09:46:00;18.60;99.90
7842;DHT22;3966;51.052;13.820;2022-09-09T09:48:27;18.50;99.90
7842;DHT22;3966;51.052;13.820;2022-09-09T09:50:58;18.40;99.90
7842;DHT22;3966;51.052;13.820;2022-09-09T09:53:27;18.30;99.90
7842;DHT22;3966;51.052;13.820;2022-09-09T09:56:01;18.30;99.90
7842;DHT22;3966;51.052;13.820;2022-09-09T09:58:29;18.30;99.90
7842;DHT22;3966;51.052;13.820;2022-09-09T10:00:57;18.30;99.90
7842;DHT22;3966;51.052;13.820;2022-09-09T10:03:32;18.40;99.90
7842;DHT22;3966;51.052;13.820;2022-09-09T10:06:03;18.50;99.90
7842;DHT22;3966;51.052;13.820;2022-09-09T10:08:29;18.70;99.90
7842;DHT22;3966;51.052;13.820;2022-09-09T10:13:43;19.30;99.90
7842;DHT22;3966;51.052;13.820;2022-09-09T10:19:09;20.20;99.90
7842;DHT22;3966;51.052;13.820;2022-09-09T10:27:05;21.20;99.90
7842;DHT22;3966;51.052;13.820;2022-09-09T10:30:09;21.50;99.90
7842;DHT22;3966;51.052;13.820;2022-09-09T10:35:58;21.80;99.90
7842;DHT22;3966;51.052;13.820;2022-09-09T10:38:42;22.00;99.90
7842;DHT22;3966;51.052;13.820;2022-09-09T10:49:20;22.60;99.90
7842;DHT22;3966;51.052;13.820;2022-09-09T10:52:11;22.90;99.90
7842;DHT22;3966;51.052;13.820;2022-09-09T10:55:00;23.00;99.90
7842;DHT22;3966;51.052;13.820;2022-09-09T10:57:39;22.80;99.90
7842;DHT22;3966;51.052;13.820;2022-09-09T11:00:23;22.70;99.90
7842;DHT22;3966;51.052;13.820;2022-09-09T11:03:01;22.80;99.90
7842;DHT22;3966;51.052;13.820;2022-09-09T11:05:44;23.00;99.90
7842;DHT22;3966;51.052;13.820;2022-09-09T11:08:12;23.40;99.90
7842;DHT22;3966;51.052;13.820;2022-09-09T11:13:55;23.70;99.90
7842;DHT22;3966;51.052;13.820;2022-09-09T11:16:46;23.30;99.90
7842;DHT22;3966;51.052;13.820;2022-09-09T11:19:27;23.40;99.90
7842;DHT22;3966;51.052;13.820;2022-09-09T11:21:55;23.50;99.90
7842;DHT22;3966;51.052;13.820;2022-09-09T11:27:02;22.90;99.90
7842;DHT22;3966;51.052;13.820;2022-09-09T11:29:44;22.70;99.90
7842;DHT22;3966;51.052;13.820;2022-09-09T11:32:29;22.70;99.90
7842;DHT22;3966;51.052;13.820;2022-09-09T11:40:44;22.20;99.90
7842;DHT22;3966;51.052;13.820;2022-09-09T11:43:12;22.20;99.90
7842;DHT22;3966;51.052;13.820;2022-09-09T11:45:40;22.00;99.90
7842;DHT22;3966;51.052;13.820;2022-09-09T11:48:23;21.80;99.90
7842;DHT22;3966;51.052;13.820;2022-09-09T11:51:08;21.90;99.90
7842;DHT22;3966;51.052;13.820;2022-09-09T11:53:47;22.20;99.90
7842;DHT22;3966;51.052;13.820;2022-09-09T11:56:24;22.30;99.90
7842;DHT22;3966;51.052;13.820;2022-09-09T11:58:58;22.20;99.90
7842;DHT22;3966;51.052;13.820;2022-09-09T12:01:33;22.30;99.90
7842;DHT22;3966;51.052;13.820;2022-09-09T12:14:55;22.00;99.90
7842;DHT22;3966;51.052;13.820;2022-09-09T12:17:26;22.30;99.90
7842;DHT22;3966;51.052;13.820;2022-09-09T12:20:03;22.60;99.90
7842;DHT22;3966;51.052;13.820;2022-09-09T12:22:41;23.20;99.90
7842;DHT22;3966;51.052;13.820;2022-09-09T12:28:18;23.70;99.90
7842;DHT22;3966;51.052;13.820;2022-09-09T12:33:18;24.20;99.90
7842;DHT22;3966;51.052;13.820;2022-09-09T12:35:48;24.60;99.90
7842;DHT22;3966;51.052;13.820;2022-09-09T12:38:21;25.50;99.90
7842;DHT22;3966;51.052;13.820;2022-09-09T12:40:56;25.30;99.90
7842;DHT22;3966;51.052;13.820;2022-09-09T12:43:24;25.50;99.90
7842;DHT22;3966;51.052;13.820;2022-09-09T12:45:53;25.30;99.90
7842;DHT22;3966;51.052;13.820;2022-09-09T12:48:33;25.40;99.90
7842;DHT22;3966;51.052;13.820;2022-09-09T12:51:00;25.10;99.90
7842;DHT22;3966;51.052;13.820;2022-09-09T12:53:31;24.60;99.90
7842;DHT22;3966;51.052;13.820;2022-09-09T12:56:07;24.20;99.90
7842;DHT22;3966;51.052;13.820;2022-09-09T12:58:34;23.80;99.90
7842;DHT22;3966;51.052;13.820;2022-09-09T13:01:02;23.80;99.90
7842;DHT22;3966;51.052;13.820;2022-09-09T13:03:32;23.60;99.90
7842;DHT22;3966;51.052;13.820;2022-09-09T13:06:10;23.60;99.90
7842;DHT22;3966;51.052;13.820;2022-09-09T13:08:37;23.60;99.90
7842;DHT22;3966;51.052;13.820;2022-09-09T13:11:06;24.00;99.90
7842;DHT22;3966;51.052;13.820;2022-09-09T13:13:40;24.80;99.90
7842;DHT22;3966;51.052;13.820;2022-09-09T13:16:17;25.50;99.90
7842;DHT22;3966;51.052;13.820;2022-09-09T13:18:43;26.10;99.90
7842;DHT22;3966;51.052;13.820;2022-09-09T13:21:09;26.20;99.90
7842;DHT22;3966;51.052;13.820;2022-09-09T13:23:36;26.70;99.90
7842;DHT22;3966;51.052;13.820;2022-09-09T13:26:24;27.20;99.90
7842;DHT22;3966;51.052;13.820;2022-09-09T13:28:52;27.70;99.90
7842;DHT22;3966;51.052;13.820;2022-09-09T13:31:29;28.40;99.90
7842;DHT22;3966;51.052;13.820;2022-09-09T13:33:55;28.20;99.90
7842;DHT22;3966;51.052;13.820;2022-09-09T13:36:31;27.60;99.90
7842;DHT22;3966;51.052;13.820;2022-09-09T13:38:59;27.50;99.90
7842;DHT22;3966;51.052;13.820;2022-09-09T13:41:34;27.90;99.90
7842;DHT22;3966;51.052;13.820;2022-09-09T13:44:02;27.70;99.90
7842;DHT22;3966;51.052;13.820;2022-09-09T13:46:34;27.90;99.90
7842;DHT22;3966;51.052;13.820;2022-09-09T13:51:39;28.20;99.90
7842;DHT22;3966;51.052;13.820;2022-09-09T13:54:09;27.20;99.90
7842;DHT22;3966;51.052;13.820;2022-09-09T13:56:36;26.70;99.90
7842;DHT22;3966;51.052;13.820;2022-09-09T13:59:03;25.80;99.90
7842;DHT22;3966;51.052;13.820;2022-09-09T14:01:29;25.30;99.90
7842;DHT22;3966;51.052;13.820;2022-09-09T14:03:55;25.10;99.90
7842;DHT22;3966;51.052;13.820;2022-09-09T14:06:21;24.80;99.90
7842;DHT22;3966;51.052;13.820;2022-09-09T14:08:47;24.70;99.90
7842;DHT22;3966;51.052;13.820;2022-09-09T14:11:14;24.40;99.90
7842;DHT22;3966;51.052;13.820;2022-09-09T14:13:40;24.30;99.90
7842;DHT22;3966;51.052;13.820;2022-09-09T14:16:05;24.20;99.90
7842;DHT22;3966;51.052;13.820;2022-09-09T14:18:31;24.10;99.90
7842;DHT22;3966;51.052;13.820;2022-09-09T14:20:57;24.10;99.90
7842;DHT22;3966;51.052;13.820;2022-09-09T14:23:24;24.00;99.90
7842;DHT22;3966;51.052;13.820;2022-09-09T14:25:49;23.90;99.90
7842;DHT22;3966;51.052;13.820;2022-09-09T14:28:15;23.80;99.90
7842;DHT22;3966;51.052;13.820;2022-09-09T14:30:42;23.90;99.90
7842;DHT22;3966;51.052;13.820;2022-09-09T14:33:10;24.00;99.90
7842;DHT22;3966;51.052;13.820;2022-09-09T14:35:36;24.10;99.90
7842;DHT22;3966;51.052;13.820;2022-09-09T14:38:02;24.00;99.90
7842;DHT22;3966;51.052;13.820;2022-09-09T14:40:28;24.00;99.90
7842;DHT22;3966;51.052;13.820;2022-09-09T14:42:54;24.00;99.90
7842;DHT22;3966;51.052;13.820;2022-09-09T14:45:22;24.20;99.90
7842;DHT22;3966;51.052;13.820;2022-09-09T14:47:50;24.50;99.90
7842;DHT22;3966;51.052;13.820;2022-09-09T14:50:17;24.90;99.90
7842;DHT22;3966;51.052;13.820;2022-09-09T14:52:44;25.10;99.90
7842;DHT22;3966;51.052;13.820;2022-09-09T14:55:09;25.00;99.90
7842;DHT22;3966;51.052;13.820;2022-09-09T14:57:35;25.10;99.90
7842;DHT22;3966;51.052;13.820;2022-09-09T15:00:02;24.90;99.90
7842;DHT22;3966;51.052;13.820;2022-09-09T15:02:28;24.60;99.90
7842;DHT22;3966;51.052;13.820;2022-09-09T15:04:55;24.50;99.90
7842;DHT22;3966;51.052;13.820;2022-09-09T15:07:22;24.40;99.90
7842;DHT22;3966;51.052;13.820;2022-09-09T15:09:48;24.30;99.90
7842;DHT22;3966;51.052;13.820;2022-09-09T15:12:15;24.20;99.90
7842;DHT22;3966;51.052;13.820;2022-09-09T15:14:40;24.00;99.90
7842;DHT22;3966;51.052;13.820;2022-09-09T15:17:06;23.80;99.90
7842;DHT22;3966;51.052;13.820;2022-09-09T15:19:32;23.70;99.90
7842;DHT22;3966;51.052;13.820;2022-09-09T15:21:57;23.70;99.90
7842;DHT22;3966;51.052;13.820;2022-09-09T15:24:24;23.70;99.90
7842;DHT22;3966;51.052;13.820;2022-09-09T15:26:51;23.80;99.90
7842;DHT22;3966;51.052;13.820;2022-09-09T15:29:17;23.90;99.90
7842;DHT22;3966;51.052;13.820;2022-09-09T15:31:42;24.10;99.90
7842;DHT22;3966;51.052;13.820;2022-09-09T15:34:08;24.10;99.90
7842;DHT22;3966;51.052;13.820;2022-09-09T15:36:42;24.20;99.90
7842;DHT22;3966;51.052;13.820;2022-09-09T15:39:10;24.00;99.90
7842;DHT22;3966;51.052;13.820;2022-09-09T15:41:41;23.60;99.90
7842;DHT22;3966;51.052;13.820;2022-09-09T15:44:07;23.50;99.90
7842;DHT22;3966;51.052;13.820;2022-09-09T15:46:41;23.70;99.90
7842;DHT22;3966;51.052;13.820;2022-09-09T15:49:13;23.90;99.90
7842;DHT22;3966;51.052;13.820;2022-09-09T15:51:41;24.00;99.90
7842;DHT22;3966;51.052;13.820;2022-09-09T15:54:08;23.70;99.90
7842;DHT22;3966;51.052;13.820;2022-09-09T15:56:34;23.60;99.90
7842;DHT22;3966;51.052;13.820;2022-09-09T15:59:01;23.50;99.90
7842;DHT22;3966;51.052;13.820;2022-09-09T16:01:29;23.40;99.90
7842;DHT22;3966;51.052;13.820;2022-09-09T16:03:55;23.50;99.90
7842;DHT22;3966;51.052;13.820;2022-09-09T16:06:23;23.40;99.90
7842;DHT22;3966;51.052;13.820;2022-09-09T16:08:52;23.10;99.90
7842;DHT22;3966;51.052;13.820;2022-09-09T16:11:20;22.90;99.90
7842;DHT22;3966;51.052;13.820;2022-09-09T16:13:48;22.80;99.90
7842;DHT22;3966;51.052;13.820;2022-09-09T16:16:14;22.60;99.90
7842;DHT22;3966;51.052;13.820;2022-09-09T16:18:45;22.50;99.90
7842;DHT22;3966;51.052;13.820;2022-09-09T16:21:17;22.40;99.90
7842;DHT22;3966;51.052;13.820;2022-09-09T16:23:44;22.30;99.90
7842;DHT22;3966;51.052;13.820;2022-09-09T16:26:14;22.10;99.90
7842;DHT22;3966;51.052;13.820;2022-09-09T16:28:39;22.10;99.90
7842;DHT22;3966;51.052;13.820;2022-09-09T16:31:06;21.90;99.90
7842;DHT22;3966;51.052;13.820;2022-09-09T16:33:32;21.90;99.90
7842;DHT22;3966;51.052;13.820;2022-09-09T16:35:57;22.40;99.90
7842;DHT22;3966;51.052;13.820;2022-09-09T16:38:23;22.90;99.90
7842;DHT22;3966;51.052;13.820;2022-09-09T16:40:49;23.30;99.90
7842;DHT22;3966;51.052;13.820;2022-09-09T16:43:15;23.40;99.90
7842;DHT22;3966;51.052;13.820;2022-09-09T16:45:44;23.70;99.90
7842;DHT22;3966;51.052;13.820;2022-09-09T16:48:11;23.90;99.90
7842;DHT22;3966;51.052;13.820;2022-09-09T16:50:36;24.00;99.90
7842;DHT22;3966;51.052;13.820;2022-09-09T16:53:02;23.60;99.90
7842;DHT22;3966;51.052;13.820;2022-09-09T16:55:29;24.30;99.90
7842;DHT22;3966;51.052;13.820;2022-09-09T16:57:55;23.80;99.90
7842;DHT22;3966;51.052;13.820;2022-09-09T17:00:20;23.40;99.90
7842;DHT22;3966;51.052;13.820;2022-09-09T17:02:48;23.60;99.90
7842;DHT22;3966;51.052;13.820;2022-09-09T17:05:14;23.40;99.90
7842;DHT22;3966;51.052;13.820;2022-09-09T17:07:39;23.20;99.90
7842;DHT22;3966;51.052;13.820;2022-09-09T17:10:06;23.00;99.90
7842;DHT22;3966;51.052;13.820;2022-09-09T17:12:32;23.00;99.90
7842;DHT22;3966;51.052;13.820;2022-09-09T17:14:58;22.90;99.90
7842;DHT22;3966;51.052;13.820;2022-09-09T17:17:25;23.10;99.90
7842;DHT22;3966;51.052;13.820;2022-09-09T17:19:52;22.70;99.90
7842;DHT22;3966;51.052;13.820;2022-09-09T17:22:17;22.50;99.90
7842;DHT22;3966;51.052;13.820;2022-09-09T17:24:43;22.30;99.90
7842;DHT22;3966;51.052;13.820;2022-09-09T17:27:09;22.00;99.90
7842;DHT22;3966;51.052;13.820;2022-09-09T17:29:35;21.90;99.90
7842;DHT22;3966;51.052;13.820;2022-09-09T17:32:02;21.80;99.90
7842;DHT22;3966;51.052;13.820;2022-09-09T17:34:28;21.40;99.90
7842;DHT22;3966;51.052;13.820;2022-09-09T17:36:57;21.50;99.90
7842;DHT22;3966;51.052;13.820;2022-09-09T17:39:32;21.20;99.90
7842;DHT22;3966;51.052;13.820;2022-09-09T17:41:57;21.20;99.90
7842;DHT22;3966;51.052;13.820;2022-09-09T17:44:23;21.10;99.90
7842;DHT22;3966;51.052;13.820;2022-09-09T17:46:49;20.90;99.90
7842;DHT22;3966;51.052;13.820;2022-09-09T17:49:16;20.70;99.90
7842;DHT22;3966;51.052;13.820;2022-09-09T17:51:43;20.40;99.90
7842;DHT22;3966;51.052;13.820;2022-09-09T17:54:20;20.30;99.90
7842;DHT22;3966;51.052;13.820;2022-09-09T17:56:46;20.10;99.90
7842;DHT22;3966;51.052;13.820;2022-09-09T17:59:13;20.00;99.90